Time;durP1;ratioP1;P1;durP2;ratioP2;P2;SDS_P1;SDS_P2;PMS_P1;PMS_P2;Temp;Humidity;BMP_temperature;BMP_pressure;BME280_temperature;BME280_humidity;BME280_pressure;Samples;Min_cycle;Max_cycle;Signal;HPM_P1;HPM_P2
2021/03/01 00:01:06;;;;;;;5.72;4.32;;;3.70;99.90;;;;;;5050682;28;20730;-75
2021/03/01 00:03:32;;;;;;;5.18;3.80;;;3.80;99.90;;;;;;5050251;28;20392;-69
2021/03/01 00:05:57;;;;;;;4.78;3.97;;;3.60;99.90;;;;;;5050840;28;20382;-69
2021/03/01 00:08:23;;;;;;;4.97;3.63;;;4.60;99.90;;;;;;5049577;28;20381;-69
2021/03/01 00:10:49;;;;;;;5.40;3.63;;;3.60;99.90;;;;;;5050398;28;20396;-69
2021/03/01 00:13:16;;;;;;;6.95;4.53;;;4.10;99.90;;;;;;5049578;28;20472;-70
2021/03/01 00:15:42;;;;;;;5.93;3.88;;;3.60;99.90;;;;;;5050609;28;20381;-69
2021/03/01 00:18:08;;;;;;;5.35;3.95;;;3.60;99.90;;;;;;5049934;28;20459;-75
2021/03/01 00:20:34;;;;;;;6.30;4.00;;;3.70;99.90;;;;;;5050394;28;20421;-69
2021/03/01 00:23:00;;;;;;;4.50;3.53;;;3.70;99.90;;;;;;5050270;28;20802;-69
2021/03/01 00:25:26;;;;;;;4.57;3.88;;;3.30;99.90;;;;;;5049549;28;20961;-69
2021/03/01 00:27:52;;;;;;;5.97;3.88;;;3.50;99.90;;;;;;5050232;28;20384;-69
2021/03/01 00:30:18;;;;;;;4.50;4.00;;;3.30;99.90;;;;;;5049634;28;20888;-69
2021/03/01 00:32:44;;;;;;;6.50;3.97;;;3.30;99.90;;;;;;5050258;28;20392;-69
2021/03/01 00:35:10;;;;;;;5.27;3.90;;;3.20;99.90;;;;;;5049525;28;20442;-74
2021/03/01 00:37:36;;;;;;;5.68;3.30;;;3.30;99.90;;;;;;5048906;28;20394;-69
2021/03/01 00:40:04;;;;;;;7.03;4.00;;;3.60;99.90;;;;;;5049823;28;20436;-69
2021/03/01 00:42:30;;;;;;;5.80;4.00;;;3.20;99.90;;;;;;5048177;28;20948;-70
2021/03/01 00:44:56;;;;;;;7.20;3.45;;;3.70;99.90;;;;;;5050164;28;20405;-69
2021/03/01 00:47:22;;;;;;;6.50;3.90;;;4.30;99.90;;;;;;5049158;28;20381;-69
2021/03/01 00:49:48;;;;;;;4.27;3.50;;;4.50;99.90;;;;;;5050185;28;20536;-67
2021/03/01 00:52:14;;;;;;;5.57;3.88;;;3.40;99.90;;;;;;5049134;28;20464;-68
2021/03/01 00:54:39;;;;;;;5.72;4.40;;;3.20;99.90;;;;;;5048720;28;20396;-68
2021/03/01 00:57:05;;;;;;;5.10;3.90;;;3.30;99.90;;;;;;5050134;28;20384;-68
2021/03/01 00:59:31;;;;;;;4.95;3.40;;;4.70;99.90;;;;;;5049214;28;20516;-68
2021/03/01 01:02:00;;;;;;;5.63;3.60;;;3.20;99.90;;;;;;5050166;28;20480;-67
2021/03/01 01:04:29;;;;;;;6.75;4.15;;;4.50;99.90;;;;;;5049527;28;20425;-68
2021/03/01 01:06:55;;;;;;;5.43;3.90;;;3.60;99.90;;;;;;5049831;28;20463;-67
2021/03/01 01:09:21;;;;;;;4.80;3.70;;;2.90;99.90;;;;;;5049184;28;20416;-67
2021/03/01 01:11:47;;;;;;;6.47;4.13;;;2.90;99.90;;;;;;5049971;28;20420;-68
2021/03/01 01:14:15;;;;;;;7.38;4.70;;;3.60;99.90;;;;;;5048786;28;20431;-69
2021/03/01 01:16:40;;;;;;;4.78;3.42;;;3.00;99.90;;;;;;5050327;28;20409;-68
2021/03/01 01:19:08;;;;;;;4.77;3.93;;;2.90;99.90;;;;;;5048776;28;20433;-67
2021/03/01 01:21:35;;;;;;;6.18;4.30;;;4.00;99.90;;;;;;5049696;28;20386;-67
2021/03/01 01:24:01;;;;;;;5.50;3.72;;;2.80;99.90;;;;;;5050031;28;20400;-68
2021/03/01 01:26:27;;;;;;;6.30;4.00;;;3.00;99.90;;;;;;5049244;28;20389;-68
2021/03/01 01:28:53;;;;;;;5.85;3.80;;;3.20;99.90;;;;;;5049611;28;20388;-68
2021/03/01 01:31:19;;;;;;;5.07;4.00;;;3.10;99.90;;;;;;5049089;28;20912;-68
2021/03/01 01:33:44;;;;;;;6.60;4.70;;;3.00;99.90;;;;;;5049449;28;20401;-68
2021/03/01 01:36:11;;;;;;;4.75;3.53;;;3.00;99.90;;;;;;5049504;28;20421;-74
2021/03/01 01:38:37;;;;;;;5.28;3.70;;;2.60;99.90;;;;;;5049156;28;20456;-68
2021/03/01 01:41:03;;;;;;;5.07;3.95;;;2.90;99.90;;;;;;5049451;28;20496;-68
2021/03/01 01:43:28;;;;;;;5.15;4.05;;;3.00;99.90;;;;;;5048991;28;20432;-68
2021/03/01 01:45:54;;;;;;;6.63;4.07;;;3.00;99.90;;;;;;5049721;28;20381;-68
2021/03/01 01:48:20;;;;;;;5.70;4.10;;;2.60;99.90;;;;;;5049213;28;20389;-68
2021/03/01 01:50:46;;;;;;;5.63;3.97;;;3.10;99.90;;;;;;5053619;28;20385;-68
2021/03/01 01:53:12;;;;;;;4.10;3.33;;;2.70;99.90;;;;;;5052934;28;20688;-73
2021/03/01 01:55:38;;;;;;;5.75;3.97;;;3.20;99.90;;;;;;5052913;28;20385;-68
2021/03/01 01:58:05;;;;;;;4.70;3.97;;;2.70;99.90;;;;;;5053197;28;20384;-68
2021/03/01 02:03:52;;;;;;;5.80;3.92;;;2.60;99.90;;;;;;5051906;28;20397;-68
2021/03/01 02:06:58;;;;;;;4.70;3.72;;;2.50;99.90;;;;;;5051938;28;20392;-68
2021/03/01 02:10:13;;;;;;;6.80;4.35;;;2.60;99.90;;;;;;5030870;28;20397;-68
2021/03/01 02:12:46;;;;;;;7.13;4.00;;;2.60;99.90;;;;;;4990844;28;20418;-68
2021/03/01 02:15:22;;;;;;;4.85;3.72;;;2.60;99.90;;;;;;5042353;28;20442;-71
2021/03/01 02:17:48;;;;;;;4.95;3.88;;;2.70;99.90;;;;;;5052634;28;20817;-68
2021/03/01 02:20:14;;;;;;;5.60;3.80;;;2.50;99.90;;;;;;5052249;28;20448;-73
2021/03/01 02:22:41;;;;;;;5.70;4.10;;;2.30;99.90;;;;;;5052579;28;20374;-67
2021/03/01 02:25:08;;;;;;;4.57;3.97;;;2.50;99.90;;;;;;5052630;28;20785;-68
2021/03/01 02:28:00;;;;;;;5.13;3.60;;;2.10;99.90;;;;;;5051903;28;20933;-67
2021/03/01 02:30:30;;;;;;;6.47;4.35;;;2.20;99.90;;;;;;5051523;28;20424;-68
2021/03/01 02:33:09;;;;;;;6.25;3.60;;;2.50;99.90;;;;;;5052366;28;20401;-67
2021/03/01 02:35:39;;;;;;;4.85;3.75;;;2.40;99.90;;;;;;5051584;28;20463;-67
2021/03/01 02:38:08;;;;;;;5.43;3.88;;;2.00;99.90;;;;;;5052489;28;20373;-68
2021/03/01 02:40:36;;;;;;;6.68;3.72;;;2.20;99.90;;;;;;5051029;28;20428;-68
2021/03/01 02:43:03;;;;;;;5.43;4.10;;;2.10;99.90;;;;;;5052248;28;20381;-67
2021/03/01 02:45:30;;;;;;;5.10;3.40;;;2.20;99.90;;;;;;5051399;28;20404;-67
2021/03/01 02:47:59;;;;;;;5.35;3.88;;;2.50;99.90;;;;;;5052014;28;20381;-67
2021/03/01 02:50:25;;;;;;;4.43;3.15;;;2.20;99.90;;;;;;5051139;28;20415;-68
2021/03/01 02:52:52;;;;;;;5.45;4.15;;;2.50;99.90;;;;;;5052213;28;20377;-67
2021/03/01 02:55:19;;;;;;;7.10;4.35;;;2.30;99.90;;;;;;5051517;28;20381;-73
2021/03/01 02:57:47;;;;;;;5.40;3.45;;;2.10;99.90;;;;;;5052108;28;20618;-67
2021/03/01 03:00:13;;;;;;;4.90;3.80;;;2.30;99.90;;;;;;5051634;28;20496;-68
2021/03/01 03:02:41;;;;;;;6.50;3.88;;;2.30;99.90;;;;;;5050987;28;20397;-68
2021/03/01 03:05:09;;;;;;;6.63;3.50;;;2.30;99.90;;;;;;5051873;28;20834;-68
2021/03/01 03:07:38;;;;;;;5.40;3.80;;;2.40;99.90;;;;;;5050774;28;20435;-68
2021/03/01 03:10:07;;;;;;;4.73;3.53;;;2.70;99.90;;;;;;5051846;28;20460;-68
2021/03/01 03:12:33;;;;;;;5.25;4.03;;;2.10;99.90;;;;;;5050697;28;20385;-68
2021/03/01 03:15:01;;;;;;;4.70;3.55;;;2.00;99.90;;;;;;5052067;28;20944;-68
2021/03/01 03:17:31;;;;;;;5.40;3.80;;;2.30;99.90;;;;;;5050873;28;20390;-68
2021/03/01 03:19:59;;;;;;;6.07;3.33;;;2.40;99.90;;;;;;5050265;28;20493;-68
2021/03/01 03:22:25;;;;;;;5.72;3.70;;;2.00;99.90;;;;;;5050760;28;20833;-68
2021/03/01 03:24:50;;;;;;;5.50;3.90;;;2.20;99.90;;;;;;5051550;28;20473;-69
2021/03/01 03:27:16;;;;;;;5.25;3.70;;;2.10;99.90;;;;;;5066629;28;20780;-73
2021/03/01 03:29:42;;;;;;;5.53;3.80;;;1.70;99.90;;;;;;5050692;28;20765;-67
2021/03/01 03:32:08;;;;;;;5.60;4.10;;;1.50;99.90;;;;;;5051170;28;20378;-67
2021/03/01 03:34:37;;;;;;;5.40;3.42;;;1.90;99.90;;;;;;5050727;28;20479;-67
2021/03/01 03:37:20;;;;;;;5.25;3.78;;;1.90;99.90;;;;;;5050959;28;20392;-68
2021/03/01 03:39:51;;;;;;;7.00;4.22;;;1.50;99.90;;;;;;5049804;28;20881;-67
2021/03/01 03:42:24;;;;;;;4.50;3.60;;;2.50;99.90;;;;;;5050898;28;20423;-68
2021/03/01 03:44:56;;;;;;;5.75;4.22;;;1.50;99.90;;;;;;5051353;28;20384;-67
2021/03/01 03:47:23;;;;;;;6.10;3.75;;;1.90;99.90;;;;;;5050066;28;20384;-73
2021/03/01 03:49:51;;;;;;;5.10;3.78;;;1.50;99.90;;;;;;5050876;28;20385;-67
2021/03/01 03:52:21;;;;;;;5.67;3.90;;;1.60;99.90;;;;;;5051262;28;20381;-69
2021/03/01 03:54:49;;;;;;;4.93;3.40;;;3.50;99.90;;;;;;5050959;28;20460;-69
2021/03/01 03:57:21;;;;;;;5.13;3.40;;;1.40;99.90;;;;;;5050793;28;20434;-69
2021/03/01 03:59:48;;;;;;;5.25;3.70;;;1.70;99.90;;;;;;5050720;28;20409;-69
2021/03/01 04:02:14;;;;;;;5.25;3.72;;;2.50;99.90;;;;;;5050680;28;20381;-69
2021/03/01 04:04:42;;;;;;;5.35;3.35;;;1.50;99.90;;;;;;5049813;28;20389;-69
2021/03/01 04:07:09;;;;;;;5.07;3.60;;;1.80;99.90;;;;;;5049699;28;20434;-68
2021/03/01 04:09:38;;;;;;;8.40;4.03;;;1.50;99.90;;;;;;5049650;28;20389;-69
2021/03/01 04:12:06;;;;;;;5.53;4.10;;;2.20;99.90;;;;;;5050299;28;20373;-69
2021/03/01 04:14:33;;;;;;;4.68;3.70;;;1.50;99.90;;;;;;5049670;28;20390;-69
2021/03/01 04:17:03;;;;;;;5.40;3.35;;;1.90;99.90;;;;;;5050566;28;20405;-67
2021/03/01 04:19:30;;;;;;;4.82;3.85;;;1.60;99.90;;;;;;5049682;28;20494;-67
2021/03/01 04:22:00;;;;;;;6.20;3.70;;;2.90;99.90;;;;;;5050368;28;20849;-67
2021/03/01 04:24:30;;;;;;;5.70;3.80;;;1.60;99.90;;;;;;5049524;28;20741;-68
2021/03/01 04:26:58;;;;;;;5.72;3.53;;;2.60;99.90;;;;;;5050459;28;20382;-68
2021/03/01 04:29:26;;;;;;;6.85;4.35;;;1.80;99.90;;;;;;5049445;28;20881;-71
2021/03/01 04:31:53;;;;;;;4.68;3.60;;;1.80;99.90;;;;;;5048905;28;20421;-67
2021/03/01 04:34:20;;;;;;;6.10;3.50;;;1.30;99.90;;;;;;5050113;28;20390;-68
2021/03/01 04:37:00;;;;;;;;;;;;;;;;;;;;;
2021/03/01 04:39:33;;;;;;;5.40;3.78;;;1.30;99.90;;;;;;5048917;28;20418;-67
2021/03/01 04:41:59;;;;;;;5.87;4.20;;;1.90;99.90;;;;;;5050083;28;20417;-69
2021/03/01 04:44:25;;;;;;;6.13;4.13;;;1.30;99.90;;;;;;5049573;28;20396;-73
2021/03/01 04:46:55;;;;;;;7.05;3.78;;;1.50;99.90;;;;;;5050299;28;20443;-68
2021/03/01 04:49:24;;;;;;;5.30;4.05;;;1.30;99.90;;;;;;5048913;28;20393;-70
2021/03/01 04:51:51;;;;;;;4.95;3.90;;;3.00;99.90;;;;;;5050194;28;20377;-68
2021/03/01 04:54:20;;;;;;;6.37;3.97;;;3.00;99.90;;;;;;5049201;28;20490;-67
2021/03/01 04:56:48;;;;;;;5.50;3.53;;;1.40;99.90;;;;;;5048202;28;20469;-68
2021/03/01 04:59:17;;;;;;;5.10;3.42;;;2.00;99.90;;;;;;5050041;28;20468;-67
2021/03/01 05:01:44;;;;;;;6.85;4.22;;;1.50;99.90;;;;;;5049916;28;20389;-68
2021/03/01 05:04:10;;;;;;;6.30;3.95;;;1.30;99.90;;;;;;5050384;28;20389;-70
2021/03/01 05:06:37;;;;;;;6.15;4.50;;;1.20;99.90;;;;;;5050106;28;20408;-67
2021/03/01 05:09:04;;;;;;;6.13;3.83;;;1.20;99.90;;;;;;5050294;28;20468;-67
2021/03/01 05:11:35;;;;;;;5.60;4.13;;;1.20;99.90;;;;;;5049655;28;20462;-69
2021/03/01 05:14:03;;;;;;;6.50;3.70;;;1.20;99.90;;;;;;5050334;28;20389;-69
2021/03/01 05:16:29;;;;;;;3.95;3.08;;;1.40;99.90;;;;;;5049393;28;20795;-68
2021/03/01 05:18:55;;;;;;;5.05;3.45;;;1.80;99.90;;;;;;5050311;28;20390;-67
2021/03/01 05:21:21;;;;;;;5.38;4.50;;;1.30;99.90;;;;;;5050150;28;20409;-67
2021/03/01 05:23:48;;;;;;;5.10;3.67;;;1.80;99.90;;;;;;5050820;28;20390;-69
2021/03/01 05:26:15;;;;;;;7.65;3.83;;;1.40;99.90;;;;;;5054201;28;20394;-69
2021/03/01 05:28:41;;;;;;;4.60;3.80;;;1.70;99.90;;;;;;5053390;28;20386;-70
2021/03/01 05:31:07;;;;;;;7.30;4.28;;;2.20;99.90;;;;;;5054091;28;20417;-67
2021/03/01 05:33:33;;;;;;;5.80;3.70;;;1.30;99.90;;;;;;5053330;28;20429;-68
2021/03/01 05:36:01;;;;;;;6.05;4.43;;;1.10;99.90;;;;;;5051727;28;20397;-74
2021/03/01 05:38:27;;;;;;;5.30;4.40;;;1.20;99.90;;;;;;5040322;28;20470;-69
2021/03/01 05:40:54;;;;;;;6.93;4.50;;;2.20;99.90;;;;;;5045918;28;20417;-72
2021/03/01 05:43:25;;;;;;;5.90;4.72;;;1.30;99.90;;;;;;5043516;28;20425;-67
2021/03/01 05:45:52;;;;;;;6.25;4.10;;;1.20;99.90;;;;;;5042716;28;20389;-68
2021/03/01 05:48:20;;;;;;;8.20;4.97;;;1.40;99.90;;;;;;5042624;28;20373;-69
2021/03/01 05:50:47;;;;;;;7.47;5.20;;;1.00;99.90;;;;;;5042638;28;20377;-67
2021/03/01 05:53:18;;;;;;;6.18;4.05;;;1.00;99.90;;;;;;5043220;28;20392;-71
2021/03/01 05:55:44;;;;;;;5.65;4.35;;;0.90;99.90;;;;;;5064332;28;20918;-67
2021/03/01 05:58:11;;;;;;;7.60;4.53;;;1.50;99.90;;;;;;5032594;28;20415;-69
2021/03/01 06:00:37;;;;;;;5.47;4.30;;;1.30;99.90;;;;;;5031917;28;20411;-68
2021/03/01 06:03:03;;;;;;;9.23;4.47;;;1.10;99.90;;;;;;5032112;28;20434;-69
2021/03/01 06:05:29;;;;;;;8.73;4.22;;;1.00;99.90;;;;;;5031936;28;20490;-72
2021/03/01 06:07:56;;;;;;;6.38;3.60;;;1.70;99.90;;;;;;5032764;28;20398;-68
2021/03/01 06:10:23;;;;;;;5.63;3.10;;;0.90;99.90;;;;;;5047930;28;20387;-68
2021/03/01 06:12:49;;;;;;;5.60;4.10;;;1.00;99.90;;;;;;5032065;28;20406;-68
2021/03/01 06:15:16;;;;;;;6.65;4.30;;;0.80;99.90;;;;;;5032723;28;20827;-67
2021/03/01 06:18:05;;;;;;;6.15;4.10;;;0.80;99.90;;;;;;5031945;28;20803;-68
2021/03/01 06:20:33;;;;;;;6.53;4.70;;;0.50;99.90;;;;;;5050583;28;20453;-69
2021/03/01 06:23:00;;;;;;;6.50;4.05;;;0.80;99.90;;;;;;5051597;28;20378;-67
2021/03/01 06:25:26;;;;;;;7.97;4.50;;;1.00;99.90;;;;;;5051102;28;20489;-68
2021/03/01 06:27:53;;;;;;;6.45;4.45;;;0.80;99.90;;;;;;5051764;28;20404;-67
2021/03/01 06:30:31;;;;;;;6.33;5.03;;;0.90;99.90;;;;;;5052255;28;20400;-68
2021/03/01 06:33:09;;;;;;;6.57;3.95;;;0.90;99.90;;;;;;5052054;28;20457;-68
2021/03/01 06:35:42;;;;;;;6.93;5.07;;;0.60;99.90;;;;;;5050984;28;20417;-68
2021/03/01 06:38:39;;;;;;;7.80;4.43;;;1.20;99.90;;;;;;5051125;28;20911;-69
2021/03/01 06:41:16;;;;;;;7.53;4.80;;;1.20;99.90;;;;;;5044439;28;20417;-67
2021/03/01 06:43:59;;;;;;;5.95;4.28;;;1.00;99.90;;;;;;5051367;28;20385;-68
2021/03/01 06:46:30;;;;;;;7.00;4.72;;;1.00;99.90;;;;;;5052051;28;20382;-67
2021/03/01 06:49:10;;;;;;;7.22;4.30;;;1.20;99.90;;;;;;5052022;28;20381;-66
2021/03/01 06:51:36;;;;;;;8.38;5.43;;;1.60;99.90;;;;;;5050519;28;20420;-67
2021/03/01 06:54:02;;;;;;;6.38;3.92;;;1.10;99.90;;;;;;5051160;28;20390;-66
2021/03/01 06:56:41;;;;;;;6.80;4.87;;;1.60;99.90;;;;;;5052202;28;20377;-66
2021/03/01 06:59:18;;;;;;;6.72;4.40;;;2.70;99.90;;;;;;5052354;28;20388;-66
2021/03/01 07:01:49;;;;;;;7.53;5.10;;;1.30;99.90;;;;;;5044807;28;20438;-67
2021/03/01 07:04:25;;;;;;;8.57;5.10;;;1.50;99.90;;;;;;5043314;28;20425;-72
2021/03/01 07:06:53;;;;;;;6.60;4.63;;;1.40;99.90;;;;;;5043106;28;20396;-70
2021/03/01 07:09:21;;;;;;;6.65;5.10;;;1.50;99.90;;;;;;5042086;28;20723;-71
2021/03/01 07:11:47;;;;;;;6.72;4.82;;;1.60;99.90;;;;;;5040368;28;20419;-71
2021/03/01 07:14:19;;;;;;;7.60;5.15;;;1.70;99.90;;;;;;5055940;28;20405;-72
2021/03/01 07:17:15;;;;;;;6.80;4.80;;;1.90;99.90;;;;;;5042271;28;20741;-68
2021/03/01 07:20:00;;;;;;;5.85;4.03;;;2.00;99.90;;;;;;5032901;28;20440;-68
2021/03/01 07:22:27;;;;;;;6.30;4.72;;;2.30;99.90;;;;;;5067711;28;20753;-68
2021/03/01 07:24:54;;;;;;;8.70;4.93;;;2.00;99.90;;;;;;5034084;28;20413;-72
2021/03/01 07:27:21;;;;;;;7.35;4.60;;;2.60;99.90;;;;;;5039220;28;20421;-72
2021/03/01 07:29:51;;;;;;;5.15;4.32;;;2.10;99.90;;;;;;5038191;28;20397;-69
2021/03/01 07:32:21;;;;;;;8.20;5.20;;;3.80;99.90;;;;;;5032589;28;20424;-72
2021/03/01 07:34:49;;;;;;;6.20;4.47;;;2.40;99.90;;;;;;5034667;28;20459;-70
2021/03/01 07:37:14;;;;;;;9.13;5.53;;;2.30;99.90;;;;;;5039692;28;20527;-73
2021/03/01 07:39:40;;;;;;;7.47;4.43;;;2.40;99.90;;;;;;5036886;28;20426;-71
2021/03/01 07:42:10;;;;;;;7.47;4.55;;;2.20;99.90;;;;;;5036349;28;20394;-70
2021/03/01 07:44:39;;;;;;;6.35;4.40;;;2.70;99.90;;;;;;5036308;28;21419;-70
2021/03/01 07:47:07;;;;;;;7.22;4.60;;;2.80;99.90;;;;;;5037789;28;20394;-69
2021/03/01 07:49:41;;;;;;;13.52;5.72;;;2.90;99.90;;;;;;5035448;28;20470;-75
2021/03/01 07:52:08;;;;;;;6.72;5.40;;;3.00;99.90;;;;;;5036014;28;20385;-73
2021/03/01 07:54:53;;;;;;;7.43;5.20;;;3.60;99.90;;;;;;5034196;28;20397;-75
2021/03/01 07:57:26;;;;;;;7.60;5.30;;;3.80;99.90;;;;;;5035303;28;20434;-70
2021/03/01 07:59:52;;;;;;;7.85;5.60;;;3.40;99.90;;;;;;5034876;28;21078;-71
2021/03/01 08:02:32;;;;;;;7.57;6.25;;;4.00;99.90;;;;;;5031311;28;20480;-71
2021/03/01 08:05:00;;;;;;;9.18;6.20;;;3.40;99.90;;;;;;5035394;28;20838;-71
2021/03/01 08:07:36;;;;;;;7.57;6.03;;;3.30;99.90;;;;;;5036288;28;20420;-73
2021/03/01 08:10:03;;;;;;;7.88;5.80;;;3.50;99.90;;;;;;5036792;28;20428;-70
2021/03/01 08:12:29;;;;;;;6.65;5.40;;;3.50;99.90;;;;;;5035888;28;20405;-67
2021/03/01 08:15:07;;;;;;;7.28;5.20;;;3.80;99.90;;;;;;5031843;28;20513;-67
2021/03/01 08:17:38;;;;;;;8.40;5.78;;;3.90;99.90;;;;;;5035865;28;21074;-73
2021/03/01 08:20:12;;;;;;;7.97;5.97;;;4.00;99.90;;;;;;5036677;28;20458;-71
2021/03/01 08:23:03;;;;;;;9.57;7.30;;;4.30;99.90;;;;;;5032609;28;20409;-74
2021/03/01 08:25:54;;;;;;;10.23;6.82;;;4.30;99.90;;;;;;5039039;28;20417;-68
2021/03/01 08:28:22;;;;;;;8.38;6.75;;;4.60;99.90;;;;;;5039124;28;20386;-69
2021/03/01 08:30:54;;;;;;;8.20;6.80;;;4.80;99.90;;;;;;5030750;28;20401;-72
2021/03/01 08:33:27;;;;;;;8.82;7.00;;;4.40;99.90;;;;;;5031570;28;21073;-71
2021/03/01 08:36:13;;;;;;;8.20;7.05;;;4.70;99.90;;;;;;5037035;28;20570;-68
2021/03/01 08:38:42;;;;;;;7.75;6.32;;;4.70;99.90;;;;;;5036508;28;20378;-71
2021/03/01 08:41:10;;;;;;;9.52;7.15;;;5.00;99.90;;;;;;5033673;28;21920;-68
2021/03/01 08:43:40;;;;;;;10.63;7.30;;;4.90;99.90;;;;;;5034721;28;20386;-73
2021/03/01 08:46:16;;;;;;;11.15;7.40;;;4.80;99.90;;;;;;5037599;28;20725;-73
2021/03/01 08:48:51;;;;;;;10.35;7.20;;;5.60;99.90;;;;;;5036670;28;20781;-69
2021/03/01 08:51:19;;;;;;;10.38;7.25;;;5.10;99.90;;;;;;5030001;28;20797;-71
2021/03/01 08:53:45;;;;;;;12.60;7.18;;;5.50;99.90;;;;;;5033845;28;20499;-72
2021/03/01 08:56:26;;;;;;;9.32;6.78;;;6.20;99.90;;;;;;5036016;28;20398;-73
2021/03/01 08:58:54;;;;;;;10.50;6.95;;;5.70;99.90;;;;;;5039077;28;20389;-73
2021/03/01 09:01:20;;;;;;;8.73;6.13;;;5.60;99.90;;;;;;5036332;28;20413;-72
2021/03/01 09:03:47;;;;;;;8.03;6.20;;;5.60;99.90;;;;;;5038040;28;20404;-73
2021/03/01 09:06:20;;;;;;;9.73;6.10;;;5.60;99.90;;;;;;5041180;28;20393;-71
2021/03/01 09:09:03;;;;;;;7.97;6.15;;;5.90;99.90;;;;;;5038372;28;21020;-69
2021/03/01 09:11:35;;;;;;;9.00;6.25;;;5.60;99.90;;;;;;5035184;28;20480;-74
2021/03/01 09:14:06;;;;;;;10.00;6.20;;;6.40;99.90;;;;;;5038805;28;20396;-71
2021/03/01 09:16:40;;;;;;;8.38;6.50;;;6.00;99.20;;;;;;5041485;28;20393;-72
2021/03/01 09:19:09;;;;;;;9.32;6.18;;;6.00;99.90;;;;;;5039411;28;20981;-73
2021/03/01 09:21:40;;;;;;;8.43;6.25;;;6.30;99.90;;;;;;5037805;28;20405;-76
2021/03/01 09:24:10;;;;;;;9.88;6.70;;;5.90;99.90;;;;;;5039456;28;20460;-69
2021/03/01 09:26:45;;;;;;;8.45;7.00;;;6.50;99.90;;;;;;5056107;28;20396;-70
2021/03/01 09:29:18;;;;;;;9.35;6.95;;;6.20;99.90;;;;;;5038887;28;20389;-71
2021/03/01 09:31:50;;;;;;;7.95;6.13;;;6.30;99.90;;;;;;5033351;28;20472;-73
2021/03/01 09:34:17;;;;;;;8.68;6.57;;;6.40;97.30;;;;;;5035630;28;20405;-70
2021/03/01 09:36:49;;;;;;;13.40;7.28;;;6.60;99.50;;;;;;5037475;28;20397;-69
2021/03/01 09:39:27;;;;;;;8.82;6.30;;;6.80;99.90;;;;;;5038723;28;21003;-72
2021/03/01 09:42:03;;;;;;;9.43;6.47;;;6.80;99.90;;;;;;5038012;28;20409;-71
2021/03/01 09:44:32;;;;;;;8.73;6.40;;;6.70;98.80;;;;;;5039080;28;20378;-75
2021/03/01 09:46:59;;;;;;;8.68;6.45;;;6.80;98.30;;;;;;5053045;28;20432;-76
2021/03/01 09:49:29;;;;;;;8.63;6.10;;;7.20;98.30;;;;;;5039792;28;21105;-72
2021/03/01 09:51:55;;;;;;;8.73;6.10;;;7.10;98.50;;;;;;5037948;28;20393;-70
2021/03/01 09:54:25;;;;;;;11.05;6.07;;;8.50;98.10;;;;;;5038324;28;20393;-69
2021/03/01 09:56:55;;;;;;;12.10;6.93;;;7.00;98.60;;;;;;5038296;28;20469;-69
2021/03/01 09:59:36;;;;;;;8.60;7.00;;;6.60;97.10;;;;;;5039285;28;20915;-72
2021/03/01 10:02:14;;;;;;;9.23;6.60;;;7.10;99.90;;;;;;5035592;28;20446;-74
2021/03/01 10:04:41;;;;;;;9.00;7.05;;;7.00;94.50;;;;;;5038383;28;20396;-73
2021/03/01 10:07:23;;;;;;;12.93;7.55;;;7.20;96.50;;;;;;5038525;28;20861;-70
2021/03/01 10:09:50;;;;;;;12.57;7.47;;;7.50;99.90;;;;;;5033863;28;21275;-73
2021/03/01 10:12:17;;;;;;;11.38;7.50;;;7.70;96.90;;;;;;5036572;28;20528;-69
2021/03/01 10:14:43;;;;;;;10.68;7.63;;;7.30;96.80;;;;;;5036245;28;20389;-69
2021/03/01 10:17:28;;;;;;;8.05;6.75;;;8.20;96.20;;;;;;5038354;28;20393;-70
2021/03/01 10:20:13;;;;;;;10.43;7.10;;;7.50;96.20;;;;;;5039522;28;20417;-70
2021/03/01 10:22:59;;;;;;;11.85;7.45;;;7.60;93.70;;;;;;5037586;28;20515;-74
2021/03/01 10:25:31;;;;;;;11.57;8.32;;;7.70;98.40;;;;;;5040587;28;20390;-73
2021/03/01 10:27:56;;;;;;;9.48;7.80;;;8.60;96.20;;;;;;5036541;28;20390;-72
2021/03/01 10:30:22;;;;;;;11.13;7.20;;;8.10;96.70;;;;;;5036251;28;21620;-75
2021/03/01 10:33:09;;;;;;;11.43;7.60;;;7.90;94.80;;;;;;5035565;28;20393;-71
2021/03/01 10:35:35;;;;;;;11.50;7.78;;;7.90;97.00;;;;;;5040951;28;20436;-70
2021/03/01 10:38:10;;;;;;;9.82;7.18;;;9.40;96.10;;;;;;5041131;28;20388;-68
2021/03/01 10:40:38;;;;;;;10.65;7.50;;;8.20;99.00;;;;;;5040058;28;20971;-73
2021/03/01 10:43:12;;;;;;;14.13;8.63;;;8.10;94.00;;;;;;5038039;28;20448;-72
2021/03/01 10:45:49;;;;;;;10.70;7.95;;;8.70;94.40;;;;;;5039884;28;20385;-70
2021/03/01 10:48:16;;;;;;;10.63;8.07;;;;;;;;;;5038778;28;21455;-70
2021/03/01 10:50:42;;;;;;;10.88;7.93;;;8.20;90.80;;;;;;5037421;28;20463;-72
2021/03/01 10:53:08;;;;;;;11.63;8.20;;;8.40;93.30;;;;;;5037834;28;20404;-69
2021/03/01 10:55:34;;;;;;;12.40;8.10;;;8.00;94.80;;;;;;5038838;28;20392;-69
2021/03/01 10:58:00;;;;;;;10.65;7.50;;;8.40;94.20;;;;;;5038429;28;20386;-70
2021/03/01 11:00:26;;;;;;;9.93;7.75;;;9.10;93.70;;;;;;5038550;28;20877;-69
2021/03/01 11:03:00;;;;;;;10.90;8.30;;;7.30;92.20;;;;;;5036201;28;20409;-68
2021/03/01 11:05:26;;;;;;;10.83;7.70;;;8.90;97.70;;;;;;5039339;28;20788;-71
2021/03/01 11:07:52;;;;;;;10.70;8.38;;;9.00;92.00;;;;;;5054869;28;20400;-72
2021/03/01 11:10:19;;;;;;;11.13;8.00;;;8.80;92.50;;;;;;5038942;28;20885;-69
2021/03/01 11:12:44;;;;;;;13.05;8.02;;;9.20;91.70;;;;;;5034672;28;20412;-74
2021/03/01 11:15:11;;;;;;;11.80;8.00;;;8.90;94.80;;;;;;5040390;28;20374;-70
2021/03/01 11:17:37;;;;;;;11.02;7.50;;;9.70;95.30;;;;;;5039532;28;20446;-69
2021/03/01 11:20:03;;;;;;;12.43;8.15;;;9.50;92.20;;;;;;5038575;28;20417;-74
2021/03/01 11:22:29;;;;;;;10.95;7.10;;;10.40;87.90;;;;;;5038693;28;20384;-69
2021/03/01 11:25:05;;;;;;;10.90;7.95;;;10.20;87.70;;;;;;5037292;28;20408;-69
2021/03/01 11:27:31;;;;;;;9.60;7.75;;;9.70;86.60;;;;;;5038304;28;20727;-69
2021/03/01 11:29:57;;;;;;;10.27;7.20;;;10.70;87.10;;;;;;5039729;28;20518;-70
2021/03/01 11:32:23;;;;;;;10.75;8.10;;;10.70;92.30;;;;;;5037885;28;20385;-73
2021/03/01 11:34:49;;;;;;;10.90;7.47;;;11.30;85.50;;;;;;5036140;28;20523;-69
2021/03/01 11:37:16;;;;;;;9.43;7.45;;;12.20;80.20;;;;;;5039501;28;21094;-74
2021/03/01 11:39:45;;;;;;;9.98;7.75;;;12.40;76.70;;;;;;5038908;28;20471;-70
2021/03/01 11:42:12;;;;;;;10.30;8.20;;;13.10;75.40;;;;;;5036594;28;20408;-70
2021/03/01 11:44:38;;;;;;;10.75;8.10;;;12.40;84.10;;;;;;5035740;28;20533;-75
2021/03/01 11:47:04;;;;;;;10.33;7.60;;;13.60;74.40;;;;;;5035557;28;20381;-71
2021/03/01 11:49:30;;;;;;;12.30;8.67;;;13.80;85.80;;;;;;5037972;28;20922;-70
2021/03/01 11:51:56;;;;;;;11.18;7.93;;;12.60;73.90;;;;;;5035482;28;20389;-71
2021/03/01 11:54:22;;;;;;;9.15;7.88;;;13.70;70.90;;;;;;5038519;28;20382;-70
2021/03/01 11:56:48;;;;;;;11.73;8.02;;;14.10;79.10;;;;;;5029189;28;20427;-71
2021/03/01 11:59:13;;;;;;;9.93;7.40;;;14.70;68.20;;;;;;5038426;28;20381;-71
2021/03/01 12:01:40;;;;;;;11.07;8.00;;;14.00;65.70;;;;;;5037266;28;20952;-75
2021/03/01 12:04:06;;;;;;;10.20;8.20;;;15.50;75.20;;;;;;5037338;28;20947;-69
2021/03/01 12:06:31;;;;;;;10.67;7.97;;;14.70;62.50;;;;;;5039336;28;20424;-69
2021/03/01 12:08:57;;;;;;;11.30;8.17;;;14.50;63.90;;;;;;5040439;28;20443;-69
2021/03/01 12:11:23;;;;;;;12.40;8.40;;;14.30;74.80;;;;;;5036527;28;20401;-71
2021/03/01 12:13:51;;;;;;;11.85;8.55;;;14.50;66.00;;;;;;5037761;28;20447;-73
2021/03/01 12:16:16;;;;;;;10.32;7.93;;;13.90;64.00;;;;;;5040547;28;20385;-68
2021/03/01 12:18:42;;;;;;;10.10;7.80;;;14.70;63.70;;;;;;5038931;28;20386;-69
2021/03/01 12:21:08;;;;;;;10.87;8.40;;;15.40;69.90;;;;;;5040761;28;20417;-73
2021/03/01 12:23:33;;;;;;;11.57;7.57;;;13.80;59.80;;;;;;5039483;28;20714;-69
2021/03/01 12:25:59;;;;;;;11.98;8.73;;;15.10;60.80;;;;;;5040659;28;20394;-72
2021/03/01 12:28:25;;;;;;;10.13;7.90;;;15.30;63.00;;;;;;5042444;28;20472;-74
2021/03/01 12:30:50;;;;;;;12.07;8.00;;;15.70;60.10;;;;;;5040170;28;20918;-69
2021/03/01 12:33:16;;;;;;;10.63;8.13;;;15.90;67.50;;;;;;5034461;28;20903;-69
2021/03/01 12:35:42;;;;;;;9.30;7.93;;;14.60;58.40;;;;;;5041366;28;20952;-70
2021/03/01 12:38:08;;;;;;;12.15;8.60;;;13.80;58.60;;;;;;5042771;28;20585;-68
2021/03/01 12:40:34;;;;;;;11.07;8.27;;;14.90;63.00;;;;;;5040849;28;20433;-71
2021/03/01 12:43:01;;;;;;;9.95;7.55;;;15.60;60.10;;;;;;5040583;28;20451;-73
2021/03/01 12:45:27;;;;;;;8.90;8.00;;;15.50;56.40;;;;;;5042565;28;20468;-69
2021/03/01 12:47:52;;;;;;;8.20;6.90;;;15.80;65.50;;;;;;5040713;28;20464;-72
2021/03/01 12:50:18;;;;;;;8.60;7.30;;;15.30;57.80;;;;;;5059230;28;20809;-68
2021/03/01 12:52:44;;;;;;;9.50;7.70;;;14.30;56.70;;;;;;5040545;28;20424;-71
2021/03/01 12:55:10;;;;;;;9.40;7.90;;;14.50;68.70;;;;;;5037834;28;20393;-69
2021/03/01 12:57:36;;;;;;;11.05;8.15;;;16.00;57.20;;;;;;5040529;28;20385;-70
2021/03/01 13:00:04;;;;;;;9.00;7.40;;;16.30;57.40;;;;;;5039739;28;20730;-68
2021/03/01 13:02:29;;;;;;;9.50;7.80;;;14.90;58.70;;;;;;5036678;28;20539;-69
2021/03/01 13:04:55;;;;;;;7.97;7.17;;;15.90;66.80;;;;;;5036931;28;20420;-73
2021/03/01 13:07:21;;;;;;;9.07;7.43;;;17.20;54.90;;;;;;5041406;28;20382;-69
2021/03/01 13:09:46;;;;;;;8.50;7.47;;;17.80;57.80;;;;;;5039597;28;20401;-69